Time;durP1;ratioP1;P1;durP2;ratioP2;P2;SDS_P1;SDS_P2;PMS_P1;PMS_P2;Temp;Humidity;BMP_temperature;BMP_pressure;BME280_temperature;BME280_humidity;BME280_pressure;Samples;Min_cycle;Max_cycle;Signal;HPM_P1;HPM_P2
2023/03/14 00:00:14;;;;;;;0.73;0.40;;;12.90;99.90;;;;;;10072661;28;20029;-64
2023/03/14 00:05:08;;;;;;;0.60;0.30;;;12.90;99.90;;;;;;10075845;28;20025;-64
2023/03/14 00:09:59;;;;;;;0.47;0.32;;;12.90;99.90;;;;;;10065260;28;20519;-65
2023/03/14 00:14:49;;;;;;;1.20;0.68;;;12.90;99.90;;;;;;10096484;28;20027;-64
2023/03/14 00:19:40;;;;;;;1.00;0.40;;;12.90;99.90;;;;;;10062584;28;20025;-64
2023/03/14 00:24:31;;;;;;;1.08;0.65;;;12.80;99.90;;;;;;10067319;28;20021;-64
2023/03/14 00:29:21;;;;;;;0.63;0.45;;;12.80;99.90;;;;;;10073715;28;20041;-63
2023/03/14 00:34:12;;;;;;;0.90;0.60;;;12.90;99.90;;;;;;10073317;28;20414;-64
2023/03/14 00:39:03;;;;;;;0.80;0.50;;;12.80;99.90;;;;;;10081084;28;20029;-64
2023/03/14 00:43:53;;;;;;;1.63;0.28;;;12.80;99.90;;;;;;10082479;28;20029;-63
2023/03/14 00:48:46;;;;;;;0.77;0.50;;;12.80;99.90;;;;;;10086283;28;20057;-64
2023/03/14 00:53:38;;;;;;;0.75;0.52;;;12.80;99.90;;;;;;10061480;28;20570;-64
2023/03/14 00:58:28;;;;;;;0.40;0.32;;;12.80;99.90;;;;;;10070754;28;20029;-64
2023/03/14 01:03:19;;;;;;;0.43;0.43;;;12.80;99.90;;;;;;10065916;28;20028;-64
2023/03/14 01:08:11;;;;;;;1.00;0.30;;;12.80;99.90;;;;;;10076883;28;20033;-66
2023/03/14 01:13:02;;;;;;;1.70;0.47;;;12.80;99.90;;;;;;10094115;28;20030;-63
2023/03/14 01:17:54;;;;;;;1.05;0.65;;;12.70;99.90;;;;;;10083670;28;20384;-64
2023/03/14 01:22:44;;;;;;;0.77;0.60;;;12.80;99.90;;;;;;10058304;28;20514;-64
2023/03/14 01:27:35;;;;;;;0.98;0.70;;;12.70;99.90;;;;;;10068557;28;20013;-64
2023/03/14 01:32:26;;;;;;;0.60;0.40;;;12.70;99.90;;;;;;10073401;28;20022;-63
2023/03/14 01:37:17;;;;;;;0.90;0.50;;;12.60;99.90;;;;;;10070441;28;20029;-64
2023/03/14 01:42:07;;;;;;;1.33;0.45;;;12.60;99.90;;;;;;10086942;28;20029;-65
2023/03/14 01:46:58;;;;;;;1.83;0.50;;;12.60;99.90;;;;;;10088652;28;20052;-64
2023/03/14 01:51:54;;;;;;;4.30;0.80;;;12.50;99.90;;;;;;10086764;28;20052;-63
2023/03/14 01:56:51;;;;;;;1.73;0.70;;;12.50;99.90;;;;;;10065500;28;20026;-63
2023/03/14 02:01:44;;;;;;;0.82;0.52;;;12.50;99.90;;;;;;10062171;28;20462;-64
2023/03/14 02:06:51;;;;;;;2.05;0.50;;;12.60;99.90;;;;;;10085291;28;20480;-64
2023/03/14 02:11:42;;;;;;;0.88;0.85;;;12.60;99.90;;;;;;10051888;28;20094;-63
2023/03/14 02:16:35;;;;;;;1.13;0.52;;;12.50;99.90;;;;;;10055719;28;20115;-63
2023/03/14 02:21:32;;;;;;;2.92;0.57;;;12.60;99.90;;;;;;10057919;28;20029;-63
2023/03/14 02:26:45;;;;;;;1.73;0.75;;;12.50;99.90;;;;;;10066055;28;20025;-63
2023/03/14 02:31:35;;;;;;;1.10;0.43;;;12.50;99.90;;;;;;10069514;28;20037;-64
2023/03/14 02:36:27;;;;;;;2.00;0.70;;;12.50;99.90;;;;;;10070142;28;20026;-64
2023/03/14 02:41:18;;;;;;;1.05;0.50;;;12.50;99.90;;;;;;10077010;28;20029;-64
2023/03/14 02:46:18;;;;;;;4.38;0.75;;;12.50;99.90;;;;;;10085994;28;20380;-64
2023/03/14 02:51:10;;;;;;;2.03;0.70;;;12.50;99.90;;;;;;10091045;28;20107;-64
2023/03/14 02:56:01;;;;;;;1.58;0.65;;;12.50;99.90;;;;;;10077119;28;20526;-63
2023/03/14 03:00:51;;;;;;;1.63;0.55;;;12.50;99.90;;;;;;10061989;28;20149;-64
2023/03/14 03:05:43;;;;;;;1.02;0.43;;;12.50;99.90;;;;;;10086000;28;20292;-63
2023/03/14 03:10:34;;;;;;;0.35;0.30;;;12.50;99.90;;;;;;10085093;28;20052;-64
2023/03/14 03:15:25;;;;;;;1.27;0.50;;;12.50;99.90;;;;;;10077802;28;20607;-64
2023/03/14 03:20:16;;;;;;;0.47;0.38;;;12.50;99.90;;;;;;10066656;28;20443;-63
2023/03/14 03:25:08;;;;;;;1.48;0.50;;;12.60;99.90;;;;;;10066806;28;20045;-64
2023/03/14 03:29:59;;;;;;;3.70;0.90;;;12.60;99.90;;;;;;10072284;28;20102;-64
2023/03/14 03:34:49;;;;;;;1.10;0.77;;;12.50;99.90;;;;;;10077307;28;20434;-65
2023/03/14 03:39:40;;;;;;;7.43;1.20;;;12.60;99.90;;;;;;10083982;28;20063;-65
2023/03/14 03:44:31;;;;;;;0.90;0.45;;;12.60;99.90;;;;;;10085653;28;20048;-63
2023/03/14 03:49:21;;;;;;;1.38;0.50;;;12.50;99.90;;;;;;10083428;28;20029;-65
2023/03/14 03:54:12;;;;;;;0.70;0.40;;;12.50;99.90;;;;;;10066220;28;20028;-64
2023/03/14 03:59:03;;;;;;;0.45;0.40;;;12.50;99.90;;;;;;10081372;28;20032;-63
2023/03/14 04:03:53;;;;;;;0.52;0.32;;;12.40;99.90;;;;;;10066139;28;20118;-63
2023/03/14 04:08:44;;;;;;;1.20;0.40;;;12.40;99.90;;;;;;10061241;28;20554;-64
2023/03/14 04:13:35;;;;;;;1.00;0.50;;;12.40;99.90;;;;;;10091913;28;20476;-65
2023/03/14 04:18:26;;;;;;;0.65;0.30;;;12.30;99.90;;;;;;10048735;28;20025;-64
2023/03/14 04:23:17;;;;;;;0.50;0.35;;;12.30;99.90;;;;;;10048671;28;20127;-63
2023/03/14 04:28:07;;;;;;;1.65;0.45;;;12.40;99.90;;;;;;10070926;28;20143;-63
2023/03/14 04:32:58;;;;;;;0.68;0.55;;;12.40;99.90;;;;;;10071650;28;20025;-64
2023/03/14 04:37:48;;;;;;;2.45;0.40;;;12.30;99.90;;;;;;10074674;28;20490;-63
2023/03/14 04:42:39;;;;;;;4.03;0.40;;;12.40;99.90;;;;;;10080573;28;20024;-65
2023/03/14 04:47:30;;;;;;;0.90;0.43;;;12.40;99.90;;;;;;10076752;28;20124;-62
2023/03/14 04:52:21;;;;;;;0.50;0.30;;;12.40;99.90;;;;;;10078138;28;20435;-64
2023/03/14 04:57:11;;;;;;;0.75;0.40;;;12.30;99.90;;;;;;10078689;28;20383;-64
2023/03/14 05:02:02;;;;;;;0.93;0.28;;;12.30;99.90;;;;;;10063852;28;20029;-63
2023/03/14 05:06:53;;;;;;;3.28;1.45;;;12.30;99.90;;;;;;10073773;28;20037;-63
2023/03/14 05:11:43;;;;;;;0.40;0.25;;;12.30;99.90;;;;;;10082397;28;20303;-63
2023/03/14 05:16:34;;;;;;;0.77;0.20;;;12.30;99.90;;;;;;10075064;28;20082;-65
2023/03/14 05:21:25;;;;;;;1.08;0.30;;;12.30;99.90;;;;;;10037832;28;20051;-63
2023/03/14 05:26:16;;;;;;;0.30;0.30;;;12.20;99.90;;;;;;10066596;28;20107;-63
2023/03/14 05:31:08;;;;;;;1.02;0.40;;;12.20;99.90;;;;;;10072872;28;20302;-63
2023/03/14 05:35:58;;;;;;;0.30;0.30;;;12.20;99.90;;;;;;10066069;28;20021;-63
2023/03/14 05:40:49;;;;;;;2.28;0.60;;;12.20;99.90;;;;;;10067352;28;20030;-63
2023/03/14 05:45:41;;;;;;;1.83;0.35;;;12.10;99.90;;;;;;10089379;28;20037;-67
2023/03/14 05:50:32;;;;;;;0.75;0.30;;;12.10;99.90;;;;;;10048829;28;20279;-64
2023/03/14 05:55:22;;;;;;;0.43;0.43;;;12.00;99.90;;;;;;10061177;28;20324;-64
2023/03/14 06:00:13;;;;;;;0.57;0.40;;;12.00;99.90;;;;;;10074616;28;20063;-64
2023/03/14 06:05:05;;;;;;;1.02;0.43;;;12.00;99.90;;;;;;10071323;28;20018;-63
2023/03/14 06:09:55;;;;;;;4.35;0.38;;;12.10;99.90;;;;;;10052531;28;20049;-63
2023/03/14 06:14:46;;;;;;;1.48;0.50;;;12.10;99.90;;;;;;10069678;28;20415;-64
2023/03/14 06:19:36;;;;;;;2.55;0.38;;;12.10;99.90;;;;;;10069141;28;20037;-64
2023/03/14 06:24:27;;;;;;;0.47;0.40;;;12.20;99.90;;;;;;10074245;28;20025;-64
2023/03/14 06:29:18;;;;;;;1.05;0.40;;;12.20;99.90;;;;;;10078610;28;20045;-64
2023/03/14 06:34:08;;;;;;;1.23;0.47;;;12.30;99.90;;;;;;10081649;28;20020;-64
2023/03/14 06:38:59;;;;;;;0.73;0.30;;;12.30;99.90;;;;;;10086212;28;20430;-65
2023/03/14 06:43:50;;;;;;;0.80;0.30;;;12.40;99.90;;;;;;10064332;28;20026;-64
2023/03/14 06:48:41;;;;;;;1.30;0.45;;;12.50;99.90;;;;;;10080926;28;20464;-63
2023/03/14 06:53:31;;;;;;;0.40;0.30;;;12.50;99.90;;;;;;10067068;28;20383;-63
2023/03/14 06:58:22;;;;;;;0.32;0.28;;;12.60;99.90;;;;;;10075541;28;20020;-63
2023/03/14 07:03:13;;;;;;;2.00;0.50;;;12.60;99.90;;;;;;10078865;28;20511;-65
2023/03/14 07:08:04;;;;;;;0.35;0.22;;;12.70;99.90;;;;;;10081629;28;20386;-64
2023/03/14 07:12:55;;;;;;;1.08;0.95;;;12.70;99.90;;;;;;10090021;28;20041;-64
2023/03/14 07:17:47;;;;;;;1.38;0.40;;;12.70;99.90;;;;;;10063270;28;20124;-64
2023/03/14 07:22:38;;;;;;;1.42;0.60;;;12.70;99.90;;;;;;10065789;28;20425;-63
2023/03/14 07:27:29;;;;;;;0.85;0.73;;;12.80;99.90;;;;;;10065574;28;20033;-63
2023/03/14 07:32:19;;;;;;;0.88;0.47;;;12.80;99.90;;;;;;10078515;28;20037;-63
2023/03/14 07:37:10;;;;;;;0.40;0.25;;;12.80;99.90;;;;;;10078327;28;20028;-64
2023/03/14 07:42:00;;;;;;;0.60;0.38;;;12.80;99.90;;;;;;9196236;28;10001000;-64
2023/03/14 07:46:51;;;;;;;1.08;0.30;;;12.90;99.90;;;;;;10084556;28;20118;-63
2023/03/14 07:51:43;;;;;;;1.35;0.35;;;12.90;99.90;;;;;;10084434;28;20511;-64
2023/03/14 07:56:34;;;;;;;0.40;0.40;;;12.80;99.90;;;;;;10063525;28;20472;-66
2023/03/14 08:01:25;;;;;;;1.88;0.85;;;12.90;99.90;;;;;;10063954;28;20159;-68
2023/03/14 08:06:15;;;;;;;1.83;0.40;;;12.90;99.90;;;;;;10076004;28;20104;-66
2023/03/14 08:11:08;;;;;;;0.90;0.55;;;12.90;99.90;;;;;;10078746;28;20037;-69
2023/03/14 08:15:59;;;;;;;0.75;0.40;;;12.90;99.90;;;;;;10069535;28;20082;-65
2023/03/14 08:20:49;;;;;;;0.20;0.20;;;12.90;99.90;;;;;;10065780;28;20116;-65
2023/03/14 08:25:40;;;;;;;0.30;0.30;;;12.90;99.90;;;;;;10069703;28;20112;-66
2023/03/14 08:30:31;;;;;;;2.38;0.60;;;12.90;99.90;;;;;;10074282;28;20503;-67
2023/03/14 08:35:21;;;;;;;1.98;0.40;;;13.10;99.90;;;;;;10072779;28;20423;-66
2023/03/14 08:40:12;;;;;;;1.02;0.28;;;13.30;99.90;;;;;;10071287;28;20030;-64
2023/03/14 08:45:04;;;;;;;0.60;0.38;;;13.50;99.90;;;;;;10073088;28;20127;-64
2023/03/14 08:49:54;;;;;;;1.33;0.45;;;13.40;99.90;;;;;;10058259;28;20033;-63
2023/03/14 08:54:45;;;;;;;1.85;0.50;;;13.40;99.90;;;;;;10062843;28;20029;-66
2023/03/14 08:59:36;;;;;;;1.88;0.63;;;13.50;99.90;;;;;;10068648;28;20463;-67
2023/03/14 09:04:26;;;;;;;1.05;0.80;;;13.60;99.90;;;;;;10059169;28;20055;-63
2023/03/14 09:09:17;;;;;;;1.73;0.70;;;13.40;99.90;;;;;;10065938;28;20041;-65
2023/03/14 09:14:07;;;;;;;0.50;0.50;;;13.40;99.90;;;;;;10071214;28;20021;-66
2023/03/14 09:18:59;;;;;;;1.83;0.70;;;13.40;99.90;;;;;;10055805;28;20029;-68
2023/03/14 09:23:50;;;;;;;0.50;0.28;;;13.40;99.90;;;;;;10068455;28;20668;-65
2023/03/14 09:28:40;;;;;;;1.05;0.30;;;13.40;99.90;;;;;;10073404;28;20045;-67
2023/03/14 09:33:31;;;;;;;0.82;0.40;;;13.40;99.90;;;;;;10060415;28;20029;-66
2023/03/14 09:38:23;;;;;;;0.25;0.25;;;13.20;99.90;;;;;;10076605;28;20052;-67
2023/03/14 09:43:14;;;;;;;1.17;0.70;;;13.20;99.90;;;;;;10077687;28;20175;-66
2023/03/14 09:48:06;;;;;;;1.10;0.52;;;13.20;99.90;;;;;;10078408;28;20080;-65
2023/03/14 09:53:02;;;;;;;0.40;0.40;;;13.10;99.90;;;;;;10055381;28;20079;-65
2023/03/14 09:58:04;;;;;;;0.88;0.50;;;13.10;99.90;;;;;;10067999;28;20118;-67
2023/03/14 10:03:19;;;;;;;0.98;0.63;;;13.10;99.90;;;;;;10061256;28;20288;-65
2023/03/14 10:08:11;;;;;;;0.43;0.30;;;13.10;99.90;;;;;;10057971;28;20128;-68
2023/03/14 10:13:17;;;;;;;0.85;0.40;;;12.90;99.90;;;;;;10050367;28;20030;-68
2023/03/14 10:18:12;;;;;;;0.20;0.20;;;12.90;99.90;;;;;;10037882;28;20037;-65
2023/03/14 10:23:12;;;;;;;0.30;0.30;;;12.90;99.90;;;;;;10050523;28;20033;-66
2023/03/14 10:28:04;;;;;;;1.05;0.73;;;12.70;99.90;;;;;;10054131;28;20063;-66
2023/03/14 10:32:55;;;;;;;0.55;0.38;;;12.70;99.90;;;;;;10055122;28;20400;-65
2023/03/14 10:38:02;;;;;;;0.65;0.40;;;12.40;99.90;;;;;;10056602;28;20519;-67
2023/03/14 10:42:52;;;;;;;1.33;0.57;;;12.40;99.90;;;;;;10052542;28;20065;-69
2023/03/14 10:47:50;;;;;;;0.55;0.40;;;12.20;99.90;;;;;;10054578;28;20080;-65
2023/03/14 10:52:48;;;;;;;0.20;0.20;;;12.30;99.90;;;;;;10049186;28;20053;-67
2023/03/14 10:57:40;;;;;;;0.20;0.20;;;12.50;99.90;;;;;;10056308;28;20029;-64
2023/03/14 11:02:37;;;;;;;1.60;0.52;;;12.40;99.90;;;;;;10057899;28;20022;-66
2023/03/14 11:07:33;;;;;;;0.40;0.40;;;12.50;99.90;;;;;;10063403;28;20098;-63
2023/03/14 11:12:51;;;;;;;0.90;0.75;;;12.70;99.90;;;;;;10063943;28;20048;-63
2023/03/14 11:17:56;;;;;;;1.17;0.40;;;12.60;99.90;;;;;;10061198;28;20029;-66
2023/03/14 11:22:57;;;;;;;1.48;0.40;;;12.20;99.90;;;;;;10062320;28;20029;-64
2023/03/14 11:27:54;;;;;;;1.80;0.60;;;12.20;99.90;;;;;;10060581;28;20438;-67
2023/03/14 11:32:57;;;;;;;3.95;1.17;;;12.30;99.90;;;;;;10060750;28;20033;-69
2023/03/14 11:37:55;;;;;;;0.60;0.43;;;12.10;99.90;;;;;;10060583;28;20071;-62
2023/03/14 11:42:54;;;;;;;3.65;0.30;;;12.00;99.90;;;;;;10083904;28;20073;-66
2023/03/14 11:47:51;;;;;;;0.85;0.50;;;12.00;99.90;;;;;;10090442;28;20523;-65
2023/03/14 11:52:56;;;;;;;3.15;0.40;;;11.90;99.90;;;;;;10056882;28;20050;-73
2023/03/14 11:57:50;;;;;;;0.90;0.50;;;11.90;99.90;;;;;;10043104;28;20117;-71
2023/03/14 12:02:53;;;;;;;1.85;0.70;;;12.00;99.90;;;;;;10059823;28;20071;-69
2023/03/14 12:07:43;;;;;;;3.05;0.70;;;12.00;99.90;;;;;;10066327;28;20061;-75
2023/03/14 12:12:35;;;;;;;1.95;0.70;;;11.90;99.90;;;;;;10068912;28;20070;-75
2023/03/14 12:17:40;;;;;;;0.65;0.60;;;11.90;99.90;;;;;;10072641;28;20077;-67
2023/03/14 12:22:34;;;;;;;1.02;0.50;;;11.90;99.90;;;;;;10067486;28;20419;-68
2023/03/14 12:27:43;;;;;;;1.38;0.40;;;11.80;99.90;;;;;;10072252;28;20037;-68
2023/03/14 12:32:34;;;;;;;1.67;0.80;;;11.90;99.90;;;;;;10064814;28;20025;-69
2023/03/14 12:37:28;;;;;;;3.88;0.82;;;11.80;99.90;;;;;;10066115;28;20026;-72
2023/03/14 12:42:59;;;;;;;3.83;1.02;;;11.80;99.90;;;;;;10055145;28;20017;-71
2023/03/14 12:48:04;;;;;;;1.42;0.50;;;11.90;99.90;;;;;;10070902;28;20068;-69
2023/03/14 12:53:27;;;;;;;1.45;0.80;;;12.10;99.90;;;;;;10083233;28;20065;-67
2023/03/14 12:58:35;;;;;;;1.95;0.80;;;11.80;99.90;;;;;;10062186;28;20044;-69
2023/03/14 13:03:39;;;;;;;1.50;0.40;;;11.90;99.90;;;;;;10025134;28;20346;-69
2023/03/14 13:08:38;;;;;;;1.27;0.50;;;11.90;99.90;;;;;;10059745;28;20055;-70
2023/03/14 13:13:28;;;;;;;2.95;0.90;;;11.80;99.90;;;;;;10075067;28;20029;-67
2023/03/14 13:18:30;;;;;;;2.13;0.52;;;11.80;99.90;;;;;;10053763;28;20496;-71
2023/03/14 13:23:26;;;;;;;2.47;0.55;;;12.10;99.90;;;;;;10038968;28;20536;-66
2023/03/14 13:28:17;;;;;;;3.00;0.80;;;12.10;99.90;;;;;;10042235;28;20025;-64
2023/03/14 13:33:14;;;;;;;2.47;0.50;;;12.20;99.90;;;;;;9155442;28;10000648;-64
2023/03/14 13:38:04;;;;;;;1.30;0.57;;;12.30;99.90;;;;;;9183879;28;10000799;-67
2023/03/14 13:43:13;;;;;;;2.22;0.60;;;12.60;99.90;;;;;;10050171;28;20488;-69
2023/03/14 13:48:03;;;;;;;0.90;0.52;;;12.70;99.90;;;;;;10049361;28;20096;-68
2023/03/14 13:52:57;;;;;;;1.60;0.50;;;13.40;99.90;;;;;;10059008;28;20033;-69
2023/03/14 13:57:54;;;;;;;0.40;0.40;;;13.60;99.90;;;;;;10055390;28;20029;-69
2023/03/14 14:02:46;;;;;;;0.63;0.60;;;13.10;99.70;;;;;;10046418;28;20099;-68
2023/03/14 14:07:37;;;;;;;0.93;0.60;;;12.70;99.90;;;;;;10054383;28;20496;-71
2023/03/14 14:12:39;;;;;;;0.50;0.20;;;12.40;99.60;;;;;;10055905;28;20038;-73
2023/03/14 14:17:36;;;;;;;3.60;0.50;;;12.50;99.90;;;;;;10057572;28;20017;-73
2023/03/14 14:22:27;;;;;;;1.60;0.68;;;12.20;99.90;;;;;;10078999;28;20112;-70
2023/03/14 14:27:18;;;;;;;1.27;0.75;;;12.00;99.90;;;;;;10054502;28;20093;-69
2023/03/14 14:32:14;;;;;;;1.45;0.70;;;12.00;99.90;;;;;;10061859;28;20034;-69
2023/03/14 14:37:05;;;;;;;0.73;0.50;;;11.90;99.90;;;;;;10068943;28;20099;-68
2023/03/14 14:41:56;;;;;;;0.60;0.52;;;12.10;99.90;;;;;;10075193;28;20499;-68
2023/03/14 14:46:46;;;;;;;0.60;0.50;;;13.40;99.90;;;;;;10082475;28;20408;-68
2023/03/14 14:51:43;;;;;;;1.95;0.60;;;14.10;99.90;;;;;;10082471;28;20057;-68
2023/03/14 14:56:36;;;;;;;1.40;0.75;;;12.70;99.90;;;;;;10069980;28;20099;-67
2023/03/14 15:01:41;;;;;;;1.00;0.57;;;12.10;99.90;;;;;;10061185;28;20101;-68
2023/03/14 15:06:32;;;;;;;2.00;0.57;;;11.80;99.90;;;;;;10077206;28;20010;-70
2023/03/14 15:11:25;;;;;;;0.90;0.50;;;11.70;99.90;;;;;;10070401;28;20127;-70
2023/03/14 15:16:20;;;;;;;0.80;0.50;;;11.60;99.90;;;;;;10077135;28;20381;-71
2023/03/14 15:21:11;;;;;;;1.65;0.60;;;11.50;99.90;;;;;;10076701;28;20404;-68
2023/03/14 15:26:02;;;;;;;0.98;0.68;;;11.40;99.90;;;;;;10063945;28;20029;-70
2023/03/14 15:30:57;;;;;;;1.80;0.60;;;11.40;99.90;;;;;;10074517;28;20075;-71
2023/03/14 15:35:48;;;;;;;1.80;0.70;;;11.30;99.90;;;;;;10071977;28;20542;-72
2023/03/14 15:40:40;;;;;;;2.47;0.70;;;11.00;99.90;;;;;;10072623;28;20033;-71
2023/03/14 15:45:31;;;;;;;1.50;0.88;;;10.80;99.90;;;;;;10071886;28;20478;-72
2023/03/14 15:50:21;;;;;;;0.70;0.30;;;10.50;99.90;;;;;;10069976;28;20097;-72
2023/03/14 15:55:14;;;;;;;0.80;0.30;;;10.20;99.90;;;;;;10062615;28;20025;-69
2023/03/14 16:00:08;;;;;;;3.42;0.77;;;10.10;99.90;;;;;;10066565;28;20439;-69
2023/03/14 16:04:58;;;;;;;2.88;1.30;;;10.00;99.90;;;;;;10060469;28;20064;-69
2023/03/14 16:09:49;;;;;;;0.80;0.50;;;10.00;99.90;;;;;;10074652;28;20499;-68
2023/03/14 16:14:42;;;;;;;2.17;0.63;;;10.00;99.90;;;;;;10067697;28;20033;-68
2023/03/14 16:19:33;;;;;;;4.38;1.05;;;10.10;99.90;;;;;;10064895;28;20018;-66
2023/03/14 16:24:23;;;;;;;2.53;1.30;;;11.60;99.90;;;;;;10062188;28;20507;-71
2023/03/14 16:29:15;;;;;;;3.33;1.05;;;13.80;99.90;;;;;;10060901;28;20044;-70
2023/03/14 16:34:06;;;;;;;1.75;1.00;;;13.00;99.90;;;;;;10058546;28;20045;-68
2023/03/14 16:38:57;;;;;;;2.30;1.70;;;11.90;99.90;;;;;;10063280;28;20021;-71
2023/03/14 16:43:51;;;;;;;1.70;0.80;;;11.30;99.90;;;;;;10062125;28;20022;-67
2023/03/14 16:48:43;;;;;;;4.03;1.13;;;10.80;99.90;;;;;;10052881;28;20137;-69
2023/03/14 16:53:33;;;;;;;3.63;1.00;;;10.60;99.90;;;;;;10059927;28;20033;-70
2023/03/14 16:58:24;;;;;;;2.92;0.85;;;10.30;99.90;;;;;;10057593;28;20171;-70
2023/03/14 17:03:16;;;;;;;2.15;1.13;;;10.00;99.90;;;;;;10052943;28;20033;-69
2023/03/14 17:08:07;;;;;;;4.60;1.67;;;9.80;99.90;;;;;;10054778;28;20057;-70
2023/03/14 17:12:58;;;;;;;4.53;1.27;;;9.80;99.90;;;;;;10085505;28;20059;-70
2023/03/14 17:17:48;;;;;;;1.77;0.80;;;9.90;99.90;;;;;;10068967;28;20026;-72
2023/03/14 17:22:39;;;;;;;2.63;1.70;;;9.90;99.90;;;;;;10081039;28;20029;-71
2023/03/14 17:27:30;;;;;;;2.60;0.93;;;9.80;99.90;;;;;;10054030;28;20124;-66
2023/03/14 17:32:21;;;;;;;2.28;0.60;;;9.80;99.90;;;;;;10029944;28;20521;-70
2023/03/14 17:37:12;;;;;;;0.57;0.47;;;9.80;99.90;;;;;;10031624;28;20019;-67
2023/03/14 17:42:03;;;;;;;1.48;0.47;;;9.80;99.90;;;;;;10032036;28;20022;-71
2023/03/14 17:46:54;;;;;;;1.58;0.50;;;9.60;99.90;;;;;;10029441;28;20424;-72
2023/03/14 17:51:45;;;;;;;0.45;0.45;;;9.60;99.90;;;;;;10025899;28;20045;-73
2023/03/14 17:56:36;;;;;;;2.00;0.65;;;9.70;99.90;;;;;;10035135;28;20025;-71
2023/03/14 18:01:26;;;;;;;6.38;1.30;;;9.90;99.90;;;;;;10030437;28;20022;-67
2023/03/14 18:06:17;;;;;;;2.97;1.30;;;10.00;99.90;;;;;;10031904;28;20385;-71
2023/03/14 18:11:08;;;;;;;3.63;0.93;;;9.90;99.90;;;;;;10050889;28;20041;-67
2023/03/14 18:15:59;;;;;;;2.50;1.10;;;9.70;99.90;;;;;;10039603;28;20024;-68
2023/03/14 18:20:52;;;;;;;1.65;0.60;;;9.60;99.90;;;;;;10045138;28;20032;-68
2023/03/14 18:25:43;;;;;;;1.80;0.60;;;9.50;99.90;;;;;;10056490;28;20056;-68
2023/03/14 18:30:33;;;;;;;1.83;1.23;;;9.50;99.90;;;;;;10064455;28;20175;-67
2023/03/14 18:35:24;;;;;;;1.75;1.10;;;9.40;99.90;;;;;;10073563;28;20498;-67
2023/03/14 18:40:16;;;;;;;2.58;1.35;;;9.40;99.90;;;;;;10056794;28;20504;-68
2023/03/14 18:45:07;;;;;;;2.75;0.90;;;9.40;99.90;;;;;;10050129;28;20041;-70
2023/03/14 18:49:58;;;;;;;1.70;0.75;;;9.30;99.90;;;;;;10053858;28;20072;-71
2023/03/14 18:54:48;;;;;;;1.30;0.90;;;9.30;99.90;;;;;;10051393;28;20057;-68
2023/03/14 18:59:39;;;;;;;2.85;1.23;;;9.20;99.90;;;;;;10047463;28;20037;-71
2023/03/14 19:04:30;;;;;;;2.58;0.98;;;9.20;99.90;;;;;;10055289;28;20197;-69
2023/03/14 19:09:20;;;;;;;2.28;1.20;;;9.20;99.90;;;;;;10055092;28;20464;-71
2023/03/14 19:14:14;;;;;;;3.60;0.82;;;9.20;99.90;;;;;;10055038;28;20442;-70
2023/03/14 19:19:05;;;;;;;1.83;1.23;;;9.30;99.90;;;;;;10058458;28;20037;-70
2023/03/14 19:23:56;;;;;;;4.70;2.00;;;9.30;99.90;;;;;;10051612;28;20492;-69
2023/03/14 19:28:47;;;;;;;1.90;1.00;;;9.30;99.90;;;;;;10057048;28;20037;-75
2023/03/14 19:33:38;;;;;;;8.02;4.10;;;9.20;99.90;;;;;;10053585;28;20079;-73
2023/03/14 19:38:28;;;;;;;3.08;1.20;;;9.10;99.90;;;;;;10052539;28;20032;-69
2023/03/14 19:43:19;;;;;;;1.23;0.68;;;9.00;99.90;;;;;;10070995;28;20124;-72
2023/03/14 19:48:10;;;;;;;1.58;0.93;;;9.00;99.90;;;;;;9165525;28;10000914;-67
2023/03/14 19:53:01;;;;;;;3.40;1.73;;;8.90;99.90;;;;;;10070111;28;20464;-70
2023/03/14 19:57:51;;;;;;;2.20;1.00;;;8.80;99.90;;;;;;10070379;28;20028;-68
2023/03/14 20:02:43;;;;;;;1.67;0.80;;;8.60;99.90;;;;;;10042511;28;20049;-68
2023/03/14 20:07:34;;;;;;;2.65;0.85;;;8.60;99.90;;;;;;10061862;28;20483;-67
2023/03/14 20:12:25;;;;;;;1.42;0.90;;;8.60;99.90;;;;;;10065303;28;20045;-68
2023/03/14 20:17:15;;;;;;;2.17;1.25;;;8.70;99.90;;;;;;10071332;28;20025;-70
2023/03/14 20:22:06;;;;;;;1.98;1.05;;;8.70;99.90;;;;;;10083812;28;20448;-67
2023/03/14 20:26:58;;;;;;;2.50;1.20;;;8.80;99.90;;;;;;10073851;28;20199;-67
2023/03/14 20:31:48;;;;;;;1.88;1.10;;;8.80;99.90;;;;;;10077210;28;20068;-67
2023/03/14 20:36:39;;;;;;;3.75;1.20;;;8.70;99.90;;;;;;10062043;28;20468;-66
2023/03/14 20:41:30;;;;;;;2.80;1.65;;;8.60;99.90;;;;;;10067473;28;20032;-67
2023/03/14 20:46:21;;;;;;;1.83;1.00;;;8.70;99.90;;;;;;10059769;28;20041;-68
2023/03/14 20:51:13;;;;;;;1.60;0.85;;;8.40;99.90;;;;;;10062192;28;20034;-69
2023/03/14 20:56:04;;;;;;;0.60;0.45;;;8.20;99.90;;;;;;10071109;28;20033;-67
2023/03/14 21:00:56;;;;;;;0.90;0.55;;;8.00;99.90;;;;;;10055527;28;20034;-72
2023/03/14 21:05:47;;;;;;;0.77;0.60;;;7.80;99.90;;;;;;10059881;28;20384;-67
2023/03/14 21:10:38;;;;;;;0.52;0.50;;;7.70;99.90;;;;;;10055119;28;20055;-66
2023/03/14 21:15:29;;;;;;;1.20;0.55;;;7.50;99.90;;;;;;10069028;28;20022;-70
2023/03/14 21:20:20;;;;;;;0.88;0.32;;;7.40;99.90;;;;;;10072754;28;20029;-66
2023/03/14 21:25:11;;;;;;;5.95;0.80;;;7.20;99.90;;;;;;10055470;28;20513;-59
2023/03/14 21:30:02;;;;;;;1.30;0.75;;;7.20;99.90;;;;;;10054780;28;20048;-61
2023/03/14 21:34:52;;;;;;;0.55;0.50;;;7.20;99.90;;;;;;10065283;28;20103;-61
2023/03/14 21:39:43;;;;;;;0.75;0.75;;;7.10;99.90;;;;;;10064728;28;20116;-60
2023/03/14 21:44:36;;;;;;;4.28;1.02;;;6.90;99.90;;;;;;10060976;28;20459;-62
2023/03/14 21:49:27;;;;;;;2.25;1.25;;;6.80;99.90;;;;;;10053491;28;20039;-60
2023/03/14 21:54:19;;;;;;;3.63;1.20;;;6.70;99.90;;;;;;10059239;28;20507;-63
2023/03/14 21:59:13;;;;;;;2.25;1.20;;;6.60;99.90;;;;;;10051902;28;20440;-60
2023/03/14 22:04:04;;;;;;;2.33;1.40;;;6.60;99.90;;;;;;10051481;28;20053;-66
2023/03/14 22:08:54;;;;;;;6.30;1.00;;;6.60;99.90;;;;;;10053875;28;20064;-62
2023/03/14 22:13:45;;;;;;;2.53;0.90;;;6.60;99.90;;;;;;10061388;28;20495;-59
2023/03/14 22:18:36;;;;;;;3.63;1.13;;;6.60;99.90;;;;;;10086497;28;20025;-59
2023/03/14 22:23:27;;;;;;;2.08;1.27;;;6.60;99.90;;;;;;10074427;28;20037;-62
2023/03/14 22:28:18;;;;;;;4.72;2.10;;;6.80;99.90;;;;;;10058310;28;20049;-61
2023/03/14 22:33:08;;;;;;;2.28;0.98;;;6.80;99.90;;;;;;10064404;28;20187;-58
2023/03/14 22:37:59;;;;;;;1.35;0.90;;;6.80;99.90;;;;;;10070331;28;20649;-59
2023/03/14 22:42:53;;;;;;;0.88;0.80;;;6.70;99.90;;;;;;10074666;28;20031;-60
2023/03/14 22:47:43;;;;;;;2.22;1.02;;;6.50;99.90;;;;;;10075106;28;20649;-60
2023/03/14 22:52:34;;;;;;;1.00;0.90;;;6.40;99.90;;;;;;10073434;28;20124;-62
2023/03/14 22:57:25;;;;;;;3.92;1.00;;;6.30;99.90;;;;;;10056799;28;20025;-59
2023/03/14 23:02:15;;;;;;;1.00;0.80;;;6.30;99.90;;;;;;10061563;28;20028;-61
2023/03/14 23:07:06;;;;;;;1.67;1.05;;;6.20;99.90;;;;;;10065675;28;20084;-57
2023/03/14 23:11:56;;;;;;;1.20;0.98;;;5.90;99.90;;;;;;10061134;28;20032;-58
2023/03/14 23:16:48;;;;;;;2.65;0.90;;;5.90;99.90;;;;;;10061057;28;20026;-57
2023/03/14 23:21:39;;;;;;;1.25;0.90;;;6.00;99.90;;;;;;10063074;28;20021;-59
2023/03/14 23:26:32;;;;;;;1.90;1.20;;;5.90;99.90;;;;;;10063428;28;20021;-56
2023/03/14 23:31:24;;;;;;;1.50;0.93;;;5.80;99.90;;;;;;10081472;28;20037;-56
2023/03/14 23:36:17;;;;;;;3.70;1.33;;;5.70;99.90;;;;;;10091678;28;20025;-58
2023/03/14 23:41:13;;;;;;;1.20;0.88;;;5.70;99.90;;;;;;10078001;28;20027;-60
2023/03/14 23:46:03;;;;;;;;;;;5.60;99.90;;;;;;10075002;28;20617;-58
2023/03/14 23:50:59;;;;;;;3.60;1.40;;;5.70;99.90;;;;;;10079753;28;19916;-60
2023/03/14 23:55:50;;;;;;;2.22;1.23;;;5.50;99.90;;;;;;10100918;28;20029;-61
